createdAt,value
2018-12-14T00:00:37.171Z,101920.14
2018-12-14T00:04:01.875Z,101919.26
2018-12-14T00:07:26.549Z,101923.68
2018-12-14T00:10:51.273Z,101918.80
2018-12-14T00:14:15.958Z,101919.08
2018-12-14T00:17:40.610Z,101915.48
2018-12-14T00:21:05.329Z,101916.47
2018-12-14T00:24:30.107Z,101920.73
2018-12-14T00:27:54.807Z,101921.00
2018-12-14T00:31:19.520Z,101921.49
2018-12-14T00:34:44.271Z,101926.56
2018-12-14T00:38:08.979Z,101928.39
2018-12-14T00:41:33.644Z,101920.43
2018-12-14T00:44:58.517Z,101923.06
2018-12-14T00:48:23.174Z,101922.34
2018-12-14T00:51:47.854Z,101919.41
2018-12-14T00:55:12.633Z,101926.48
2018-12-14T00:58:37.430Z,101926.80
2018-12-14T01:02:02.130Z,101929.40
2018-12-14T01:05:26.796Z,101937.98
2018-12-14T01:08:51.620Z,101941.09
2018-12-14T01:12:16.437Z,101936.92
2018-12-14T01:15:41.167Z,101938.13
2018-12-14T01:19:05.892Z,101938.25
2018-12-14T01:22:30.609Z,101942.25
2018-12-14T01:25:55.328Z,101946.87
2018-12-14T01:29:19.999Z,101944.69
2018-12-14T01:32:45.492Z,101943.62
2018-12-14T01:36:10.149Z,101945.73
2018-12-14T01:39:34.813Z,101944.62
2018-12-14T01:42:59.502Z,101947.11
2018-12-14T01:46:24.211Z,101952.51
2018-12-14T01:49:48.926Z,101950.27
2018-12-14T01:53:13.602Z,101943.39
2018-12-14T01:56:38.409Z,101938.97
2018-12-14T02:00:03.182Z,101941.67
2018-12-14T02:03:27.859Z,101940.55
2018-12-14T02:06:52.518Z,101934.45
2018-12-14T02:10:17.245Z,101930.17
2018-12-14T02:13:41.946Z,101933.92
2018-12-14T02:17:06.646Z,101930.12
2018-12-14T02:20:31.311Z,101929.36
2018-12-14T02:23:55.991Z,101921.67
2018-12-14T02:27:20.687Z,101924.19
2018-12-14T02:30:46.848Z,101920.84
2018-12-14T02:34:11.557Z,101916.94
2018-12-14T02:37:36.260Z,101918.12
2018-12-14T02:41:01.002Z,101917.92
2018-12-14T02:44:25.724Z,101918.30
2018-12-14T02:47:50.461Z,101915.72
2018-12-14T02:51:15.099Z,101910.66
2018-12-14T02:54:39.868Z,101913.30
2018-12-14T02:58:04.532Z,101910.81
2018-12-14T03:01:29.248Z,101916.59
2018-12-14T03:04:53.935Z,101926.80
2018-12-14T03:08:18.608Z,101920.62
2018-12-14T03:11:43.278Z,101916.41
2018-12-14T03:15:08.542Z,101908.47
2018-12-14T03:18:33.243Z,101916.16
2018-12-14T03:21:58.010Z,101919.78
2018-12-14T03:25:22.736Z,101919.50
2018-12-14T03:28:47.622Z,101915.01
2018-12-14T03:32:12.423Z,101915.61
2018-12-14T03:35:37.151Z,101914.09
2018-12-14T03:39:01.884Z,101909.67
2018-12-14T03:42:33.990Z,101902.10
2018-12-14T03:45:53.338Z,101897.16
2018-12-14T03:49:18.030Z,101898.64
2018-12-14T03:52:42.708Z,101903.55
2018-12-14T03:56:07.510Z,101898.37
2018-12-14T03:59:32.183Z,101900.85
2018-12-14T04:02:57.245Z,101911.81
2018-12-14T04:06:21.949Z,101912.38
2018-12-14T04:09:46.653Z,101913.95
2018-12-14T04:13:11.440Z,101918.24
2018-12-14T04:16:36.104Z,101918.83
2018-12-14T04:20:00.746Z,101913.49
2018-12-14T04:23:25.460Z,101912.28
2018-12-14T04:26:50.141Z,101914.83
2018-12-14T04:30:14.908Z,101912.96
2018-12-14T04:33:39.755Z,101919.74
2018-12-14T04:37:04.498Z,101918.95
2018-12-14T04:40:29.195Z,101923.32
2018-12-14T04:43:53.928Z,101927.81
2018-12-14T04:47:18.733Z,101932.58
2018-12-14T04:50:43.378Z,101932.16
2018-12-14T04:54:08.045Z,101920.77
2018-12-14T04:57:32.741Z,101917.31
2018-12-14T05:00:57.463Z,101917.53
2018-12-14T05:04:22.143Z,101927.20
2018-12-14T05:07:46.872Z,101923.70
2018-12-14T05:11:11.638Z,101919.70
2018-12-14T05:14:36.289Z,101920.58
2018-12-14T05:18:00.991Z,101925.31
2018-12-14T05:21:25.699Z,101927.52
2018-12-14T05:24:50.457Z,101929.80
2018-12-14T05:28:15.226Z,101937.08
2018-12-14T05:31:39.965Z,101936.16
2018-12-14T05:35:05.078Z,101929.15
2018-12-14T05:38:29.838Z,101927.25
2018-12-14T05:41:54.585Z,101930.95
2018-12-14T05:45:19.372Z,101929.04
2018-12-14T05:48:44.108Z,101929.91
2018-12-14T05:52:08.786Z,101938.83
2018-12-14T05:55:33.475Z,101942.19
2018-12-14T05:59:07.313Z,101939.42
2018-12-14T06:02:31.976Z,101944.23
2018-12-14T06:05:56.689Z,101935.83
2018-12-14T06:09:21.380Z,101952.93
2018-12-14T06:12:46.323Z,101952.93
2018-12-14T06:16:11.047Z,101946.79
2018-12-14T06:19:35.706Z,101953.73
2018-12-14T06:23:00.341Z,101955.98
2018-12-14T06:26:25.736Z,101958.61
2018-12-14T06:29:51.472Z,101964.86
2018-12-14T06:33:16.158Z,101976.67
2018-12-14T06:36:40.886Z,101975.45
2018-12-14T06:40:05.998Z,101968.41
2018-12-14T06:43:30.682Z,101977.31
2018-12-14T06:46:55.319Z,101974.96
2018-12-14T06:50:20.048Z,101981.80
2018-12-14T06:53:44.790Z,101988.22
2018-12-14T06:57:09.684Z,101988.30
2018-12-14T07:00:34.632Z,101990.65
2018-12-14T07:03:59.302Z,101995.31
2018-12-14T07:07:24.001Z,102003.53
2018-12-14T07:10:48.696Z,102003.91
2018-12-14T07:14:13.385Z,102007.77
2018-12-14T07:17:38.044Z,102011.77
2018-12-14T07:21:02.906Z,102018.44
2018-12-14T07:24:27.676Z,102020.55
2018-12-14T07:27:52.393Z,102021.70
2018-12-14T07:31:17.080Z,102028.06
2018-12-14T07:34:41.733Z,102034.20
2018-12-14T07:38:06.400Z,102028.16
2018-12-14T07:41:31.074Z,102032.41
2018-12-14T07:44:56.035Z,102034.63
2018-12-14T07:48:20.883Z,102042.52
2018-12-14T07:51:45.624Z,102043.78
2018-12-14T07:55:10.299Z,102048.80
2018-12-14T07:58:36.109Z,102047.53
2018-12-14T08:02:00.809Z,102053.58
2018-12-14T08:05:25.578Z,102059.79
2018-12-14T08:08:50.297Z,102060.34
2018-12-14T08:12:14.949Z,102059.66
2018-12-14T08:15:39.641Z,102061.94
2018-12-14T08:19:04.310Z,102064.98
2018-12-14T08:22:29.054Z,102064.08
2018-12-14T08:25:53.695Z,102066.18
2018-12-14T08:29:18.331Z,102069.59
2018-12-14T08:32:43.035Z,102071.98
2018-12-14T08:36:07.736Z,102075.91
2018-12-14T08:39:32.405Z,102081.24
2018-12-14T08:42:57.049Z,102074.39
2018-12-14T08:46:21.699Z,102085.84
2018-12-14T08:49:46.351Z,102085.14
2018-12-14T08:53:11.407Z,102084.79
2018-12-14T08:56:36.092Z,102088.34
2018-12-14T09:00:00.809Z,102096.83
2018-12-14T09:03:25.515Z,102091.98
2018-12-14T09:06:50.226Z,102107.25
2018-12-14T09:10:17.071Z,102111.37
2018-12-14T09:13:47.687Z,102113.97
2018-12-14T09:17:08.960Z,102119.55
2018-12-14T09:20:33.686Z,102116.17
2018-12-14T09:23:58.379Z,102120.84
2018-12-14T09:27:23.288Z,102120.84
2018-12-14T09:30:48.008Z,102119.20
2018-12-14T09:34:12.697Z,102119.76
2018-12-14T09:37:37.443Z,102123.41
2018-12-14T09:41:02.107Z,102118.31
2018-12-14T09:44:26.800Z,102121.30
2018-12-14T09:47:51.527Z,102124.97
2018-12-14T09:51:16.282Z,102127.14
2018-12-14T09:54:41.037Z,102116.59
2018-12-14T10:01:42.384Z,102116.19
2018-12-14T10:05:09.269Z,102114.20
2018-12-14T10:08:34.063Z,102116.91
2018-12-14T10:11:58.990Z,102117.33
2018-12-14T10:15:34.294Z,102112.41
2018-12-14T10:18:59.618Z,102111.89
2018-12-14T10:22:24.586Z,102108.92
2018-12-14T10:25:49.341Z,102109.00
2018-12-14T10:29:14.232Z,102105.08
2018-12-14T10:32:39.125Z,102104.47
2018-12-14T10:36:03.848Z,102098.94
2018-12-14T10:39:29.637Z,102092.97
2018-12-14T10:42:54.309Z,102089.14
2018-12-14T10:46:19.017Z,102085.71
2018-12-14T10:49:43.754Z,102087.47
2018-12-14T10:53:12.601Z,102084.83
2018-12-14T10:56:37.395Z,102082.33
2018-12-14T11:00:02.054Z,102080.98
2018-12-14T11:03:26.773Z,102081.49
2018-12-14T11:06:51.543Z,102078.57
2018-12-14T11:10:16.295Z,102074.59
2018-12-14T11:13:41.057Z,102074.55
2018-12-14T11:17:05.863Z,102067.95
2018-12-14T11:20:30.586Z,102074.92
2018-12-14T11:23:55.318Z,102071.75
2018-12-14T11:27:20.023Z,102072.58
2018-12-14T11:30:44.807Z,102074.83
2018-12-14T11:34:09.463Z,102084.94
2018-12-14T11:37:34.219Z,102077.64
2018-12-14T11:40:59.029Z,102077.14
2018-12-14T11:44:23.726Z,102074.05
2018-12-14T11:47:49.146Z,102075.77
2018-12-14T11:51:18.642Z,102073.08
2018-12-14T11:54:43.645Z,102071.42
2018-12-14T11:58:08.466Z,102076.28
2018-12-14T12:01:33.987Z,102070.16
2018-12-14T12:04:59.592Z,102068.61
2018-12-14T12:08:25.440Z,102068.83
2018-12-14T12:11:50.081Z,102072.01
2018-12-14T12:15:14.793Z,102074.01
2018-12-14T12:18:39.479Z,102070.95
2018-12-14T12:22:04.120Z,102066.83
2018-12-14T12:25:28.886Z,102071.31
2018-12-14T12:28:53.598Z,102064.66
2018-12-14T12:32:18.259Z,102070.89
2018-12-14T12:35:43.147Z,102074.39
2018-12-14T12:39:10.317Z,102075.39
2018-12-14T12:42:35.271Z,102073.06
2018-12-14T12:46:01.081Z,102075.09
2018-12-14T12:49:25.963Z,102074.63
2018-12-14T12:52:50.727Z,102075.97
2018-12-14T12:56:15.737Z,102077.30
2018-12-14T12:59:40.584Z,102073.84
2018-12-14T13:03:06.279Z,102074.66
2018-12-14T13:06:30.964Z,102068.48
2018-12-14T13:09:55.761Z,102076.05
2018-12-14T13:13:20.441Z,102074.63
2018-12-14T13:16:45.113Z,102078.41
2018-12-14T13:20:09.863Z,102076.02
2018-12-14T13:23:34.583Z,102081.55
2018-12-14T13:26:59.280Z,102079.50
2018-12-14T13:30:23.954Z,102080.44
2018-12-14T13:33:48.696Z,102087.11
2018-12-14T13:37:13.516Z,102086.10
2018-12-14T13:40:38.213Z,102086.91
2018-12-14T13:44:09.204Z,102090.38
2018-12-14T13:47:33.919Z,102092.70
2018-12-14T13:50:58.579Z,102104.13
2018-12-14T13:54:23.274Z,102105.50
2018-12-14T13:57:47.932Z,102101.52
2018-12-14T14:01:12.642Z,102109.52
2018-12-14T14:04:37.338Z,102114.90
2018-12-14T14:08:02.043Z,102121.91
2018-12-14T14:11:26.755Z,102124.69
2018-12-14T14:14:53.124Z,102134.19
2018-12-14T14:18:17.911Z,102133.98
2018-12-14T14:21:43.297Z,102139.81
2018-12-14T14:25:08.206Z,102142.89
2018-12-14T14:28:32.947Z,102138.73
2018-12-14T14:31:57.718Z,102141.02
2018-12-14T14:35:22.466Z,102142.94
2018-12-14T14:38:47.232Z,102143.86
2018-12-14T14:42:11.948Z,102150.59
2018-12-14T14:45:36.700Z,102151.67
2018-12-14T14:49:01.517Z,102155.95
2018-12-14T14:52:26.271Z,102157.93
2018-12-14T14:55:52.404Z,102163.66
2018-12-14T14:59:17.093Z,102165.80
2018-12-14T15:02:41.758Z,102162.08
2018-12-14T15:06:06.465Z,102162.81
2018-12-14T15:09:31.150Z,102168.66
2018-12-14T15:12:55.790Z,102170.02
2018-12-14T15:16:20.474Z,102176.59
2018-12-14T15:19:45.160Z,102172.94
2018-12-14T15:23:09.889Z,102177.45
2018-12-14T15:26:34.553Z,102176.00
2018-12-14T15:29:59.189Z,102184.15
2018-12-14T15:33:23.928Z,102189.07
2018-12-14T15:36:48.625Z,102191.25
2018-12-14T15:40:14.391Z,102202.21
2018-12-14T15:43:39.191Z,102201.12
2018-12-14T15:47:03.876Z,102201.41
2018-12-14T15:50:28.676Z,102203.23
2018-12-14T15:53:53.398Z,102208.36
2018-12-14T15:57:18.094Z,102208.64
2018-12-14T16:00:42.831Z,102206.87
2018-12-14T16:04:07.571Z,102209.72
2018-12-14T16:07:32.601Z,102212.58
2018-12-14T16:10:57.327Z,102209.52
2018-12-14T16:14:22.074Z,102212.42
2018-12-14T16:17:47.005Z,102212.61
2018-12-14T16:21:11.743Z,102214.27
2018-12-14T16:24:36.510Z,102216.72
2018-12-14T16:28:01.431Z,102218.77
2018-12-14T16:31:26.140Z,102219.74
2018-12-14T16:34:50.932Z,102217.98
2018-12-14T16:38:15.674Z,102220.50
2018-12-14T16:41:40.560Z,102224.27
2018-12-14T16:45:06.041Z,102223.75
2018-12-14T16:48:30.758Z,102223.88
2018-12-14T16:51:55.433Z,102225.25
2018-12-14T16:55:20.135Z,102220.89
2018-12-14T16:58:44.819Z,102231.79
2018-12-14T17:02:09.845Z,102231.47
2018-12-14T17:05:34.595Z,102233.58
2018-12-14T17:08:59.319Z,102234.66
2018-12-14T17:12:24.007Z,102231.95
2018-12-14T17:15:48.677Z,102236.52
2018-12-14T17:19:13.402Z,102243.19
2018-12-14T17:22:38.084Z,102248.66
2018-12-14T17:26:02.887Z,102244.86
2018-12-14T17:29:27.609Z,102253.91
2018-12-14T17:32:52.290Z,102252.03
2018-12-14T17:36:16.999Z,102257.14
2018-12-14T17:39:41.709Z,102262.62
2018-12-14T17:43:06.450Z,102270.51
2018-12-14T17:46:31.186Z,102269.11
2018-12-14T17:49:56.581Z,102271.55
2018-12-14T17:53:22.147Z,102280.15
2018-12-14T17:56:48.627Z,102281.31
2018-12-14T18:00:16.139Z,102278.73
2018-12-14T18:03:40.997Z,102278.61
2018-12-14T18:07:05.817Z,102280.80
2018-12-14T18:10:30.562Z,102277.45
2018-12-14T18:14:09.586Z,102286.69
2018-12-14T18:21:40.212Z,102287.47
2018-12-14T18:25:10.916Z,102291.27
2018-12-14T18:28:40.317Z,102290.69
2018-12-14T18:32:07.003Z,102291.75
2018-12-14T18:35:32.516Z,102295.20
2018-12-14T18:38:57.153Z,102296.09
2018-12-14T18:42:21.901Z,102295.27
2018-12-14T18:45:52.936Z,102295.15
2018-12-14T18:49:14.497Z,102298.33
2018-12-14T18:52:39.256Z,102300.19
2018-12-14T18:56:03.935Z,102297.33
2018-12-14T18:59:28.946Z,102303.88
2018-12-14T19:02:53.900Z,102308.13
2018-12-14T19:06:18.645Z,102312.98
2018-12-14T19:09:43.438Z,102323.33
2018-12-14T19:13:08.269Z,102322.50
2018-12-14T19:16:32.995Z,102323.78
2018-12-14T19:19:57.704Z,102328.69
2018-12-14T19:23:22.509Z,102329.66
2018-12-14T19:26:47.233Z,102333.64
2018-12-14T19:30:12.043Z,102346.05
2018-12-14T19:33:37.489Z,102344.37
2018-12-14T19:37:03.252Z,102345.90
2018-12-14T19:40:29.089Z,102340.31
2018-12-14T19:43:53.856Z,102339.80
2018-12-14T19:47:19.910Z,102341.55
2018-12-14T19:50:44.576Z,102342.69
2018-12-14T19:54:09.348Z,102339.80
2018-12-14T19:57:34.082Z,102335.42
2018-12-14T20:00:58.820Z,102336.22
2018-12-14T20:04:23.575Z,102336.47
2018-12-14T20:07:50.488Z,102341.41
2018-12-14T20:11:15.221Z,102335.37
2018-12-14T20:14:40.010Z,102332.02
2018-12-14T20:18:04.736Z,102330.71
2018-12-14T20:21:29.431Z,102335.62
2018-12-14T20:24:54.148Z,102330.14
2018-12-14T20:28:18.881Z,102332.36
2018-12-14T20:31:43.751Z,102334.77
2018-12-14T20:35:08.993Z,102322.59
2018-12-14T20:38:33.723Z,102326.28
2018-12-14T20:41:58.559Z,102321.80
2018-12-14T20:45:23.361Z,102323.24
2018-12-14T20:48:48.080Z,102325.34
2018-12-14T20:52:12.938Z,102328.52
2018-12-14T20:55:37.834Z,102327.73
2018-12-14T20:59:02.562Z,102330.84
2018-12-14T21:02:27.430Z,102332.73
2018-12-14T21:05:52.260Z,102329.40
2018-12-14T21:09:17.126Z,102326.02
2018-12-14T21:12:41.899Z,102326.81
2018-12-14T21:16:06.710Z,102336.47
2018-12-14T21:19:31.455Z,102329.40
2018-12-14T21:22:56.113Z,102326.44
2018-12-14T21:26:20.769Z,102324.73
2018-12-14T21:29:45.460Z,102322.09
2018-12-14T21:33:10.120Z,102316.38
2018-12-14T21:36:34.854Z,102321.05
2018-12-14T21:39:59.573Z,102317.32
2018-12-14T21:43:24.320Z,102319.48
2018-12-14T21:46:49.085Z,102320.92
2018-12-14T21:50:13.772Z,102314.17
2018-12-14T21:53:38.626Z,102316.89
2018-12-14T21:57:03.422Z,102310.91
2018-12-14T22:00:28.328Z,102304.56
2018-12-14T22:03:53.202Z,102307.25
2018-12-14T22:07:17.918Z,102302.25
2018-12-14T22:10:42.670Z,102305.16
2018-12-14T22:14:07.453Z,102306.36
2018-12-14T22:17:32.154Z,102306.88
2018-12-14T22:20:56.803Z,102301.30
2018-12-14T22:24:21.440Z,102305.88
2018-12-14T22:27:46.687Z,102303.23
2018-12-14T22:31:11.356Z,102304.79
2018-12-14T22:34:35.983Z,102302.30
2018-12-14T22:38:00.766Z,102311.15
2018-12-14T22:41:25.575Z,102312.30
2018-12-14T22:44:50.289Z,102314.00
2018-12-14T22:48:15.039Z,102320.36
2018-12-14T22:51:39.780Z,102325.78
2018-12-14T22:55:04.906Z,102324.14
2018-12-14T22:58:29.533Z,102320.57
2018-12-14T23:01:54.240Z,102330.41
2018-12-14T23:05:19.054Z,102325.34
2018-12-14T23:08:44.395Z,102339.02
2018-12-14T23:12:09.080Z,102338.12
2018-12-14T23:15:33.845Z,102336.40
2018-12-14T23:18:58.552Z,102335.76
2018-12-14T23:22:23.226Z,102339.88
2018-12-14T23:25:48.578Z,102338.61
2018-12-14T23:32:48.365Z,102346.28
2018-12-14T23:36:13.154Z,102344.16
2018-12-14T23:39:37.953Z,102343.48
2018-12-14T23:43:02.791Z,102341.55
2018-12-14T23:46:27.600Z,102345.17
2018-12-14T23:49:52.303Z,102347.38
2018-12-14T23:53:17.037Z,102344.73
2018-12-14T23:56:41.701Z,102351.77
